sensor_id;sensor_type;location;lat;lon;timestamp;temperature;humidity
11304;DHT22;5707;49.588;12.148;2023-01-20T00:01:26;-0.90;99.90
11304;DHT22;5707;49.588;12.148;2023-01-20T00:03:53;-0.90;99.90
11304;DHT22;5707;49.588;12.148;2023-01-20T00:06:19;-0.90;99.90
11304;DHT22;5707;49.588;12.148;2023-01-20T00:08:49;-0.90;99.90
11304;DHT22;5707;49.588;12.148;2023-01-20T00:11:15;-0.90;99.90
11304;DHT22;5707;49.588;12.148;2023-01-20T00:13:41;-0.90;99.90
11304;DHT22;5707;49.588;12.148;2023-01-20T00:16:08;-0.90;99.90
11304;DHT22;5707;49.588;12.148;2023-01-20T00:18:35;-0.90;99.90
11304;DHT22;5707;49.588;12.148;2023-01-20T00:21:11;-0.90;99.90
11304;DHT22;5707;49.588;12.148;2023-01-20T00:23:37;-0.90;99.90
11304;DHT22;5707;49.588;12.148;2023-01-20T00:26:09;-0.90;99.90
11304;DHT22;5707;49.588;12.148;2023-01-20T00:28:35;-0.90;99.90
11304;DHT22;5707;49.588;12.148;2023-01-20T00:31:18;-0.90;99.90
11304;DHT22;5707;49.588;12.148;2023-01-20T00:33:45;-0.90;99.90
11304;DHT22;5707;49.588;12.148;2023-01-20T00:36:12;-0.90;99.90
11304;DHT22;5707;49.588;12.148;2023-01-20T00:38:38;-0.90;99.90
11304;DHT22;5707;49.588;12.148;2023-01-20T00:41:04;-0.90;99.90
11304;DHT22;5707;49.588;12.148;2023-01-20T00:43:30;-0.90;99.90
11304;DHT22;5707;49.588;12.148;2023-01-20T00:45:56;-0.90;99.90
11304;DHT22;5707;49.588;12.148;2023-01-20T00:48:21;-0.90;99.90
11304;DHT22;5707;49.588;12.148;2023-01-20T00:50:47;-0.90;99.90
11304;DHT22;5707;49.588;12.148;2023-01-20T00:53:13;-0.90;99.90
11304;DHT22;5707;49.588;12.148;2023-01-20T00:55:39;-0.90;99.90
11304;DHT22;5707;49.588;12.148;2023-01-20T00:58:04;-0.90;99.90
11304;DHT22;5707;49.588;12.148;2023-01-20T01:00:30;-0.90;99.90
11304;DHT22;5707;49.588;12.148;2023-01-20T01:02:56;-0.90;99.90
11304;DHT22;5707;49.588;12.148;2023-01-20T01:05:22;-0.90;99.90
11304;DHT22;5707;49.588;12.148;2023-01-20T01:07:47;-0.90;99.90
11304;DHT22;5707;49.588;12.148;2023-01-20T01:10:13;-0.90;99.90
11304;DHT22;5707;49.588;12.148;2023-01-20T01:12:39;-0.90;99.90
11304;DHT22;5707;49.588;12.148;2023-01-20T01:15:05;-0.90;99.90
11304;DHT22;5707;49.588;12.148;2023-01-20T01:17:30;-0.90;99.90
11304;DHT22;5707;49.588;12.148;2023-01-20T01:19:56;-0.90;99.90
11304;DHT22;5707;49.588;12.148;2023-01-20T01:22:22;-0.90;99.90
11304;DHT22;5707;49.588;12.148;2023-01-20T01:24:47;-1.00;99.90
11304;DHT22;5707;49.588;12.148;2023-01-20T01:27:13;-1.00;99.90
11304;DHT22;5707;49.588;12.148;2023-01-20T01:29:39;-1.00;99.90
11304;DHT22;5707;49.588;12.148;2023-01-20T01:32:05;-1.00;99.90
11304;DHT22;5707;49.588;12.148;2023-01-20T01:34:31;-1.00;99.90
11304;DHT22;5707;49.588;12.148;2023-01-20T01:36:57;-1.00;99.90
11304;DHT22;5707;49.588;12.148;2023-01-20T01:39:22;-1.00;99.90
11304;DHT22;5707;49.588;12.148;2023-01-20T01:41:48;-1.00;99.90
11304;DHT22;5707;49.588;12.148;2023-01-20T01:44:14;-1.00;99.90
11304;DHT22;5707;49.588;12.148;2023-01-20T01:46:40;-0.90;99.90
11304;DHT22;5707;49.588;12.148;2023-01-20T01:49:14;-0.90;99.90
11304;DHT22;5707;49.588;12.148;2023-01-20T01:54:22;-0.90;99.90
11304;DHT22;5707;49.588;12.148;2023-01-20T01:56:50;-0.90;99.90
11304;DHT22;5707;49.588;12.148;2023-01-20T01:59:17;-0.90;99.90
11304;DHT22;5707;49.588;12.148;2023-01-20T02:01:47;-0.90;99.90
11304;DHT22;5707;49.588;12.148;2023-01-20T02:04:22;-0.90;99.90
11304;DHT22;5707;49.588;12.148;2023-01-20T02:06:56;-0.90;99.90
11304;DHT22;5707;49.588;12.148;2023-01-20T02:09:25;-0.90;99.90
11304;DHT22;5707;49.588;12.148;2023-01-20T02:11:53;-0.90;99.90
11304;DHT22;5707;49.588;12.148;2023-01-20T02:14:33;-0.90;99.90
11304;DHT22;5707;49.588;12.148;2023-01-20T02:20:30;-0.90;99.90
11304;DHT22;5707;49.588;12.148;2023-01-20T02:28:35;-1.00;99.90
11304;DHT22;5707;49.588;12.148;2023-01-20T02:34:03;-1.10;99.90
11304;DHT22;5707;49.588;12.148;2023-01-20T02:36:45;-1.20;99.90
11304;DHT22;5707;49.588;12.148;2023-01-20T02:42:21;-1.50;99.90
11304;DHT22;5707;49.588;12.148;2023-01-20T02:44:51;-1.60;99.90
11304;DHT22;5707;49.588;12.148;2023-01-20T02:47:19;-1.70;99.90
11304;DHT22;5707;49.588;12.148;2023-01-20T02:49:56;-1.80;99.90
11304;DHT22;5707;49.588;12.148;2023-01-20T02:52:29;-1.80;99.90
11304;DHT22;5707;49.588;12.148;2023-01-20T02:54:58;-1.80;99.90
11304;DHT22;5707;49.588;12.148;2023-01-20T02:57:39;-1.80;99.90
11304;DHT22;5707;49.588;12.148;2023-01-20T03:00:37;-1.80;99.90
11304;DHT22;5707;49.588;12.148;2023-01-20T03:03:09;-1.70;99.90
11304;DHT22;5707;49.588;12.148;2023-01-20T03:05:48;-1.60;99.90
11304;DHT22;5707;49.588;12.148;2023-01-20T03:08:17;-1.50;99.90
11304;DHT22;5707;49.588;12.148;2023-01-20T03:10:45;-1.50;99.90
11304;DHT22;5707;49.588;12.148;2023-01-20T03:13:28;-1.40;99.90
11304;DHT22;5707;49.588;12.148;2023-01-20T03:16:06;-1.30;99.90
11304;DHT22;5707;49.588;12.148;2023-01-20T03:18:33;-1.30;99.90
11304;DHT22;5707;49.588;12.148;2023-01-20T03:21:00;-1.20;99.90
11304;DHT22;5707;49.588;12.148;2023-01-20T03:23:30;-1.20;99.90
11304;DHT22;5707;49.588;12.148;2023-01-20T03:25:56;-1.20;99.90
11304;DHT22;5707;49.588;12.148;2023-01-20T03:28:22;-1.20;99.90
11304;DHT22;5707;49.588;12.148;2023-01-20T03:30:47;-1.10;99.90
11304;DHT22;5707;49.588;12.148;2023-01-20T03:33:14;-1.10;99.90
11304;DHT22;5707;49.588;12.148;2023-01-20T03:35:42;-1.10;99.90
11304;DHT22;5707;49.588;12.148;2023-01-20T03:38:07;-1.10;99.90
11304;DHT22;5707;49.588;12.148;2023-01-20T03:40:45;-1.10;99.90
11304;DHT22;5707;49.588;12.148;2023-01-20T03:43:29;-1.10;99.90
11304;DHT22;5707;49.588;12.148;2023-01-20T03:46:17;-1.10;99.90
11304;DHT22;5707;49.588;12.148;2023-01-20T03:49:14;-1.10;99.90
11304;DHT22;5707;49.588;12.148;2023-01-20T03:52:26;-1.10;99.90
11304;DHT22;5707;49.588;12.148;2023-01-20T03:54:47;-1.10;99.90
11304;DHT22;5707;49.588;12.148;2023-01-20T03:57:18;-1.10;99.90
11304;DHT22;5707;49.588;12.148;2023-01-20T03:59:47;-1.00;99.90
11304;DHT22;5707;49.588;12.148;2023-01-20T04:02:13;-1.00;99.90
11304;DHT22;5707;49.588;12.148;2023-01-20T04:04:41;-1.00;99.90
11304;DHT22;5707;49.588;12.148;2023-01-20T04:07:11;-1.00;99.90
11304;DHT22;5707;49.588;12.148;2023-01-20T04:09:43;-1.00;99.90
11304;DHT22;5707;49.588;12.148;2023-01-20T04:12:10;-1.00;99.90
11304;DHT22;5707;49.588;12.148;2023-01-20T04:14:36;-1.00;99.90
11304;DHT22;5707;49.588;12.148;2023-01-20T04:17:03;-1.00;99.90
11304;DHT22;5707;49.588;12.148;2023-01-20T04:19:29;-1.00;99.90
11304;DHT22;5707;49.588;12.148;2023-01-20T04:22:14;-1.00;99.90
11304;DHT22;5707;49.588;12.148;2023-01-20T04:24:48;-1.10;99.90
11304;DHT22;5707;49.588;12.148;2023-01-20T04:27:15;-1.20;99.90
11304;DHT22;5707;49.588;12.148;2023-01-20T04:29:40;-1.30;99.90
11304;DHT22;5707;49.588;12.148;2023-01-20T04:32:06;-1.40;99.90
11304;DHT22;5707;49.588;12.148;2023-01-20T04:34:32;-1.50;99.90
11304;DHT22;5707;49.588;12.148;2023-01-20T04:36:58;-1.50;99.90
11304;DHT22;5707;49.588;12.148;2023-01-20T04:39:23;-1.60;99.90
11304;DHT22;5707;49.588;12.148;2023-01-20T04:41:49;-1.50;99.90
11304;DHT22;5707;49.588;12.148;2023-01-20T04:44:14;-1.50;99.90
11304;DHT22;5707;49.588;12.148;2023-01-20T04:46:40;-1.40;99.90
11304;DHT22;5707;49.588;12.148;2023-01-20T04:49:06;-1.30;99.90
11304;DHT22;5707;49.588;12.148;2023-01-20T04:51:32;-1.30;99.90
11304;DHT22;5707;49.588;12.148;2023-01-20T04:53:58;-1.30;99.90
11304;DHT22;5707;49.588;12.148;2023-01-20T04:56:24;-1.30;99.90
11304;DHT22;5707;49.588;12.148;2023-01-20T04:58:50;-1.20;99.90
11304;DHT22;5707;49.588;12.148;2023-01-20T05:01:16;-1.20;99.90
11304;DHT22;5707;49.588;12.148;2023-01-20T05:03:41;-1.20;99.90
11304;DHT22;5707;49.588;12.148;2023-01-20T05:06:09;-1.20;99.90
11304;DHT22;5707;49.588;12.148;2023-01-20T05:08:35;-1.20;99.90
11304;DHT22;5707;49.588;12.148;2023-01-20T05:11:01;-1.20;99.90
11304;DHT22;5707;49.588;12.148;2023-01-20T05:13:27;-1.20;99.90
11304;DHT22;5707;49.588;12.148;2023-01-20T05:15:52;-1.20;99.90
11304;DHT22;5707;49.588;12.148;2023-01-20T05:18:18;-1.20;99.90
11304;DHT22;5707;49.588;12.148;2023-01-20T05:20:45;-1.10;99.90
11304;DHT22;5707;49.588;12.148;2023-01-20T05:23:11;-1.10;99.90
11304;DHT22;5707;49.588;12.148;2023-01-20T05:25:36;-1.10;99.90
11304;DHT22;5707;49.588;12.148;2023-01-20T05:28:02;-1.10;99.90
11304;DHT22;5707;49.588;12.148;2023-01-20T05:30:27;-1.10;99.90
11304;DHT22;5707;49.588;12.148;2023-01-20T05:32:54;-1.10;99.90
11304;DHT22;5707;49.588;12.148;2023-01-20T05:35:20;-1.10;99.90
11304;DHT22;5707;49.588;12.148;2023-01-20T05:37:45;-1.10;99.90
11304;DHT22;5707;49.588;12.148;2023-01-20T05:40:11;-1.10;99.90
11304;DHT22;5707;49.588;12.148;2023-01-20T05:42:37;-1.10;99.90
11304;DHT22;5707;49.588;12.148;2023-01-20T05:45:03;-1.10;99.90
11304;DHT22;5707;49.588;12.148;2023-01-20T05:47:29;-1.20;99.90
11304;DHT22;5707;49.588;12.148;2023-01-20T05:49:55;-1.20;99.90
11304;DHT22;5707;49.588;12.148;2023-01-20T05:52:20;-1.20;99.90
11304;DHT22;5707;49.588;12.148;2023-01-20T05:54:46;-1.10;99.90
11304;DHT22;5707;49.588;12.148;2023-01-20T05:57:11;-1.00;99.90
11304;DHT22;5707;49.588;12.148;2023-01-20T05:59:45;-1.00;99.90
11304;DHT22;5707;49.588;12.148;2023-01-20T06:02:12;-1.00;99.90
11304;DHT22;5707;49.588;12.148;2023-01-20T06:04:40;-1.00;99.90
11304;DHT22;5707;49.588;12.148;2023-01-20T06:07:05;-0.90;99.90
11304;DHT22;5707;49.588;12.148;2023-01-20T06:09:31;-0.90;99.90
11304;DHT22;5707;49.588;12.148;2023-01-20T06:11:56;-0.90;99.90
11304;DHT22;5707;49.588;12.148;2023-01-20T06:14:22;-0.90;99.90
11304;DHT22;5707;49.588;12.148;2023-01-20T06:16:48;-0.90;99.90
11304;DHT22;5707;49.588;12.148;2023-01-20T06:19:14;-0.90;99.90
11304;DHT22;5707;49.588;12.148;2023-01-20T06:21:39;-0.90;99.90
11304;DHT22;5707;49.588;12.148;2023-01-20T06:24:05;-0.90;99.90
11304;DHT22;5707;49.588;12.148;2023-01-20T06:26:31;-0.90;99.90
11304;DHT22;5707;49.588;12.148;2023-01-20T06:28:59;-0.90;99.90
11304;DHT22;5707;49.588;12.148;2023-01-20T06:31:26;-0.90;99.90
11304;DHT22;5707;49.588;12.148;2023-01-20T06:33:53;-0.90;99.90
11304;DHT22;5707;49.588;12.148;2023-01-20T06:36:20;-0.90;99.90
11304;DHT22;5707;49.588;12.148;2023-01-20T06:38:46;-0.90;99.90
11304;DHT22;5707;49.588;12.148;2023-01-20T06:41:15;-0.90;99.90
11304;DHT22;5707;49.588;12.148;2023-01-20T06:43:41;-0.90;99.90
11304;DHT22;5707;49.588;12.148;2023-01-20T06:46:10;-0.90;99.90
11304;DHT22;5707;49.588;12.148;2023-01-20T06:48:37;-0.90;99.90
11304;DHT22;5707;49.588;12.148;2023-01-20T06:51:08;-0.90;99.90
11304;DHT22;5707;49.588;12.148;2023-01-20T06:53:35;-0.90;99.90
11304;DHT22;5707;49.588;12.148;2023-01-20T06:56:01;-0.90;99.90
11304;DHT22;5707;49.588;12.148;2023-01-20T06:58:29;-0.90;99.90
11304;DHT22;5707;49.588;12.148;2023-01-20T07:00:55;-0.90;99.90
11304;DHT22;5707;49.588;12.148;2023-01-20T07:03:22;-0.90;99.90
11304;DHT22;5707;49.588;12.148;2023-01-20T07:06:12;-0.90;99.90
11304;DHT22;5707;49.588;12.148;2023-01-20T07:08:38;-0.90;99.90
11304;DHT22;5707;49.588;12.148;2023-01-20T07:11:04;-0.90;99.90
11304;DHT22;5707;49.588;12.148;2023-01-20T07:13:29;-0.90;99.90
11304;DHT22;5707;49.588;12.148;2023-01-20T07:15:55;-0.90;99.90
11304;DHT22;5707;49.588;12.148;2023-01-20T07:18:21;-0.90;99.90
11304;DHT22;5707;49.588;12.148;2023-01-20T07:20:46;-0.90;99.90
11304;DHT22;5707;49.588;12.148;2023-01-20T07:23:16;-0.90;99.90
11304;DHT22;5707;49.588;12.148;2023-01-20T07:25:42;-0.80;99.90
11304;DHT22;5707;49.588;12.148;2023-01-20T07:28:07;-0.80;99.90
11304;DHT22;5707;49.588;12.148;2023-01-20T07:30:33;-0.80;99.90
11304;DHT22;5707;49.588;12.148;2023-01-20T07:32:59;-0.70;99.90
11304;DHT22;5707;49.588;12.148;2023-01-20T07:35:24;-0.70;99.90
11304;DHT22;5707;49.588;12.148;2023-01-20T07:37:50;-0.60;99.90
11304;DHT22;5707;49.588;12.148;2023-01-20T07:40:16;-0.60;99.90
11304;DHT22;5707;49.588;12.148;2023-01-20T07:42:42;-0.50;99.90
11304;DHT22;5707;49.588;12.148;2023-01-20T07:45:07;-0.50;99.90
11304;DHT22;5707;49.588;12.148;2023-01-20T07:47:33;-0.40;99.90
11304;DHT22;5707;49.588;12.148;2023-01-20T07:49:59;-0.40;99.90
11304;DHT22;5707;49.588;12.148;2023-01-20T07:52:24;-0.30;99.90
11304;DHT22;5707;49.588;12.148;2023-01-20T07:54:50;-0.20;99.90
11304;DHT22;5707;49.588;12.148;2023-01-20T07:57:15;-0.10;99.90
11304;DHT22;5707;49.588;12.148;2023-01-20T07:59:41;0.00;99.90
11304;DHT22;5707;49.588;12.148;2023-01-20T08:02:08;0.10;99.90
11304;DHT22;5707;49.588;12.148;2023-01-20T08:04:34;0.20;99.90
11304;DHT22;5707;49.588;12.148;2023-01-20T08:06:59;0.20;99.90
11304;DHT22;5707;49.588;12.148;2023-01-20T08:09:26;0.30;99.90
11304;DHT22;5707;49.588;12.148;2023-01-20T08:11:51;0.40;99.90
11304;DHT22;5707;49.588;12.148;2023-01-20T08:14:17;0.50;99.90
11304;DHT22;5707;49.588;12.148;2023-01-20T08:16:43;0.50;99.90
11304;DHT22;5707;49.588;12.148;2023-01-20T08:19:08;0.60;99.90
11304;DHT22;5707;49.588;12.148;2023-01-20T08:21:34;0.70;99.90
11304;DHT22;5707;49.588;12.148;2023-01-20T08:24:01;0.70;99.90
11304;DHT22;5707;49.588;12.148;2023-01-20T08:26:28;0.70;99.90
11304;DHT22;5707;49.588;12.148;2023-01-20T08:28:59;0.80;99.90
11304;DHT22;5707;49.588;12.148;2023-01-20T08:31:26;0.80;99.90
11304;DHT22;5707;49.588;12.148;2023-01-20T08:33:53;0.90;99.90
11304;DHT22;5707;49.588;12.148;2023-01-20T08:36:31;1.00;99.90
11304;DHT22;5707;49.588;12.148;2023-01-20T08:38:59;1.10;99.90
11304;DHT22;5707;49.588;12.148;2023-01-20T08:41:30;1.20;99.90
11304;DHT22;5707;49.588;12.148;2023-01-20T08:43:58;1.40;99.90
11304;DHT22;5707;49.588;12.148;2023-01-20T08:46:23;1.60;99.90
11304;DHT22;5707;49.588;12.148;2023-01-20T08:48:50;1.80;99.90
11304;DHT22;5707;49.588;12.148;2023-01-20T08:51:21;2.00;99.90
11304;DHT22;5707;49.588;12.148;2023-01-20T08:53:48;2.10;99.90
11304;DHT22;5707;49.588;12.148;2023-01-20T08:56:14;2.30;99.90
11304;DHT22;5707;49.588;12.148;2023-01-20T08:58:40;2.50;99.90
11304;DHT22;5707;49.588;12.148;2023-01-20T09:01:27;2.60;99.90
11304;DHT22;5707;49.588;12.148;2023-01-20T09:03:54;2.70;99.90
11304;DHT22;5707;49.588;12.148;2023-01-20T09:06:19;2.90;99.90
11304;DHT22;5707;49.588;12.148;2023-01-20T09:08:47;3.00;99.90
11304;DHT22;5707;49.588;12.148;2023-01-20T09:11:18;3.10;99.90
11304;DHT22;5707;49.588;12.148;2023-01-20T09:13:44;3.20;99.90
11304;DHT22;5707;49.588;12.148;2023-01-20T09:16:15;3.30;99.90
11304;DHT22;5707;49.588;12.148;2023-01-20T09:18:41;3.40;99.90
11304;DHT22;5707;49.588;12.148;2023-01-20T09:21:08;3.30;99.90
11304;DHT22;5707;49.588;12.148;2023-01-20T09:23:35;3.40;99.90
11304;DHT22;5707;49.588;12.148;2023-01-20T09:26:03;3.40;99.90
11304;DHT22;5707;49.588;12.148;2023-01-20T09:28:30;3.20;99.90
11304;DHT22;5707;49.588;12.148;2023-01-20T09:31:05;3.40;99.90
11304;DHT22;5707;49.588;12.148;2023-01-20T09:33:32;3.40;99.90
11304;DHT22;5707;49.588;12.148;2023-01-20T09:36:00;3.60;99.90
11304;DHT22;5707;49.588;12.148;2023-01-20T09:38:27;3.60;99.90
11304;DHT22;5707;49.588;12.148;2023-01-20T09:41:27;3.70;99.90
11304;DHT22;5707;49.588;12.148;2023-01-20T09:47:07;3.60;99.90
11304;DHT22;5707;49.588;12.148;2023-01-20T09:55:57;4.10;99.90
11304;DHT22;5707;49.588;12.148;2023-01-20T10:01:28;4.20;99.90
11304;DHT22;5707;49.588;12.148;2023-01-20T10:09:27;4.40;99.90
11304;DHT22;5707;49.588;12.148;2023-01-20T10:12:15;4.50;99.90
11304;DHT22;5707;49.588;12.148;2023-01-20T10:14:46;4.80;99.90
11304;DHT22;5707;49.588;12.148;2023-01-20T10:17:18;4.90;99.90
11304;DHT22;5707;49.588;12.148;2023-01-20T10:19:52;5.00;99.90
11304;DHT22;5707;49.588;12.148;2023-01-20T10:22:44;5.10;99.90
11304;DHT22;5707;49.588;12.148;2023-01-20T10:25:16;5.30;99.90
11304;DHT22;5707;49.588;12.148;2023-01-20T10:27:51;5.40;99.90
11304;DHT22;5707;49.588;12.148;2023-01-20T10:30:19;5.40;99.90
11304;DHT22;5707;49.588;12.148;2023-01-20T10:33:10;5.50;99.90
11304;DHT22;5707;49.588;12.148;2023-01-20T10:35:56;5.70;99.90
11304;DHT22;5707;49.588;12.148;2023-01-20T10:38:58;5.70;99.90
11304;DHT22;5707;49.588;12.148;2023-01-20T10:43:57;5.90;99.90
11304;DHT22;5707;49.588;12.148;2023-01-20T10:46:33;5.80;99.90
11304;DHT22;5707;49.588;12.148;2023-01-20T10:55:19;4.90;99.90
11304;DHT22;5707;49.588;12.148;2023-01-20T10:57:55;4.70;99.90
11304;DHT22;5707;49.588;12.148;2023-01-20T11:00:26;4.40;99.90
11304;DHT22;5707;49.588;12.148;2023-01-20T11:02:55;4.20;99.90
11304;DHT22;5707;49.588;12.148;2023-01-20T11:05:25;4.00;99.90
11304;DHT22;5707;49.588;12.148;2023-01-20T11:07:52;3.90;99.90
11304;DHT22;5707;49.588;12.148;2023-01-20T11:10:24;3.70;99.90
11304;DHT22;5707;49.588;12.148;2023-01-20T11:12:52;3.50;99.90
11304;DHT22;5707;49.588;12.148;2023-01-20T11:15:22;3.40;99.90
11304;DHT22;5707;49.588;12.148;2023-01-20T11:20:58;3.50;99.90
11304;DHT22;5707;49.588;12.148;2023-01-20T11:28:55;3.90;99.90
11304;DHT22;5707;49.588;12.148;2023-01-20T11:31:36;4.00;99.90
11304;DHT22;5707;49.588;12.148;2023-01-20T11:34:19;4.10;99.90
11304;DHT22;5707;49.588;12.148;2023-01-20T11:36:44;4.30;99.90
11304;DHT22;5707;49.588;12.148;2023-01-20T11:39:28;4.50;99.90
11304;DHT22;5707;49.588;12.148;2023-01-20T11:42:14;4.90;99.90
11304;DHT22;5707;49.588;12.148;2023-01-20T11:52:39;5.40;99.90
11304;DHT22;5707;49.588;12.148;2023-01-20T11:55:21;5.40;99.90
11304;DHT22;5707;49.588;12.148;2023-01-20T11:57:59;5.50;99.90
11304;DHT22;5707;49.588;12.148;2023-01-20T12:00:29;5.30;99.90
11304;DHT22;5707;49.588;12.148;2023-01-20T12:03:01;5.00;99.90
11304;DHT22;5707;49.588;12.148;2023-01-20T12:05:37;4.70;99.90
11304;DHT22;5707;49.588;12.148;2023-01-20T12:08:10;4.60;99.90
11304;DHT22;5707;49.588;12.148;2023-01-20T12:10:39;4.50;99.90
11304;DHT22;5707;49.588;12.148;2023-01-20T12:13:20;4.50;99.90
11304;DHT22;5707;49.588;12.148;2023-01-20T12:15:50;4.60;99.90
11304;DHT22;5707;49.588;12.148;2023-01-20T12:18:38;4.80;99.90
11304;DHT22;5707;49.588;12.148;2023-01-20T12:21:11;4.70;99.90
11304;DHT22;5707;49.588;12.148;2023-01-20T12:26:16;4.40;99.90
11304;DHT22;5707;49.588;12.148;2023-01-20T12:29:00;4.40;99.90
11304;DHT22;5707;49.588;12.148;2023-01-20T12:31:26;4.40;99.90
11304;DHT22;5707;49.588;12.148;2023-01-20T12:37:07;4.50;99.90
11304;DHT22;5707;49.588;12.148;2023-01-20T12:39:39;4.50;99.90
11304;DHT22;5707;49.588;12.148;2023-01-20T12:42:17;4.40;99.90
11304;DHT22;5707;49.588;12.148;2023-01-20T12:50:46;3.70;99.90
11304;DHT22;5707;49.588;12.148;2023-01-20T12:56:18;3.40;99.90
11304;DHT22;5707;49.588;12.148;2023-01-20T12:59:15;3.30;99.90
11304;DHT22;5707;49.588;12.148;2023-01-20T13:07:27;3.10;99.90
11304;DHT22;5707;49.588;12.148;2023-01-20T13:16:04;3.00;99.90
11304;DHT22;5707;49.588;12.148;2023-01-20T13:21:29;2.90;99.90
11304;DHT22;5707;49.588;12.148;2023-01-20T13:23:54;2.80;99.90
11304;DHT22;5707;49.588;12.148;2023-01-20T13:26:22;2.80;99.90
11304;DHT22;5707;49.588;12.148;2023-01-20T13:28:52;2.80;99.90
11304;DHT22;5707;49.588;12.148;2023-01-20T13:31:44;2.80;99.90
11304;DHT22;5707;49.588;12.148;2023-01-20T13:34:28;2.90;99.90
11304;DHT22;5707;49.588;12.148;2023-01-20T13:39:44;3.30;99.90
11304;DHT22;5707;49.588;12.148;2023-01-20T13:50:28;3.60;99.90
11304;DHT22;5707;49.588;12.148;2023-01-20T13:58:15;3.00;99.90
11304;DHT22;5707;49.588;12.148;2023-01-20T14:00:42;2.90;99.90
11304;DHT22;5707;49.588;12.148;2023-01-20T14:03:20;2.80;99.90
11304;DHT22;5707;49.588;12.148;2023-01-20T14:05:56;2.60;99.90
11304;DHT22;5707;49.588;12.148;2023-01-20T14:08:24;2.50;99.90
11304;DHT22;5707;49.588;12.148;2023-01-20T14:10:50;2.40;99.90
11304;DHT22;5707;49.588;12.148;2023-01-20T14:13:19;2.40;99.90
11304;DHT22;5707;49.588;12.148;2023-01-20T14:15:48;2.30;99.90
11304;DHT22;5707;49.588;12.148;2023-01-20T14:18:16;2.20;99.90
11304;DHT22;5707;49.588;12.148;2023-01-20T14:21:14;2.20;99.90
11304;DHT22;5707;49.588;12.148;2023-01-20T14:23:40;2.00;99.90
11304;DHT22;5707;49.588;12.148;2023-01-20T14:26:11;1.90;99.90
11304;DHT22;5707;49.588;12.148;2023-01-20T14:28:49;1.80;99.90
11304;DHT22;5707;49.588;12.148;2023-01-20T14:31:34;1.80;99.90
11304;DHT22;5707;49.588;12.148;2023-01-20T14:34:21;1.80;99.90
11304;DHT22;5707;49.588;12.148;2023-01-20T14:36:48;1.80;99.90
11304;DHT22;5707;49.588;12.148;2023-01-20T14:39:26;1.70;99.90
11304;DHT22;5707;49.588;12.148;2023-01-20T14:41:56;1.60;99.90
11304;DHT22;5707;49.588;12.148;2023-01-20T14:44:27;1.50;99.90
11304;DHT22;5707;49.588;12.148;2023-01-20T14:46:56;1.40;99.90
11304;DHT22;5707;49.588;12.148;2023-01-20T14:49:27;1.40;99.90
11304;DHT22;5707;49.588;12.148;2023-01-20T14:51:55;1.30;99.90
11304;DHT22;5707;49.588;12.148;2023-01-20T14:54:28;1.20;99.90
11304;DHT22;5707;49.588;12.148;2023-01-20T14:56:57;1.20;99.90
11304;DHT22;5707;49.588;12.148;2023-01-20T14:59:23;1.10;99.90
11304;DHT22;5707;49.588;12.148;2023-01-20T15:02:01;1.10;99.90
11304;DHT22;5707;49.588;12.148;2023-01-20T15:04:35;1.00;99.90
11304;DHT22;5707;49.588;12.148;2023-01-20T15:07:01;1.00;99.90
11304;DHT22;5707;49.588;12.148;2023-01-20T15:09:30;0.90;99.90
11304;DHT22;5707;49.588;12.148;2023-01-20T15:12:31;0.90;99.90
11304;DHT22;5707;49.588;12.148;2023-01-20T15:15:25;0.80;99.90
11304;DHT22;5707;49.588;12.148;2023-01-20T15:20:44;0.60;99.90
11304;DHT22;5707;49.588;12.148;2023-01-20T15:23:18;0.50;99.90
11304;DHT22;5707;49.588;12.148;2023-01-20T15:25:44;0.40;99.90
11304;DHT22;5707;49.588;12.148;2023-01-20T15:28:22;0.30;99.90
11304;DHT22;5707;49.588;12.148;2023-01-20T15:30:50;0.20;99.90
11304;DHT22;5707;49.588;12.148;2023-01-20T15:33:16;0.10;99.90
11304;DHT22;5707;49.588;12.148;2023-01-20T15:35:42;0.00;99.90
11304;DHT22;5707;49.588;12.148;2023-01-20T15:38:11;-0.10;99.90
11304;DHT22;5707;49.588;12.148;2023-01-20T15:40:37;-0.10;99.90
11304;DHT22;5707;49.588;12.148;2023-01-20T15:43:17;-0.20;99.90
11304;DHT22;5707;49.588;12.148;2023-01-20T15:45:43;-0.20;99.90
11304;DHT22;5707;49.588;12.148;2023-01-20T15:48:18;-0.30;99.90
11304;DHT22;5707;49.588;12.148;2023-01-20T15:50:45;-0.30;99.90
11304;DHT22;5707;49.588;12.148;2023-01-20T15:53:11;-0.40;99.90
11304;DHT22;5707;49.588;12.148;2023-01-20T15:55:43;-0.40;99.90
11304;DHT22;5707;49.588;12.148;2023-01-20T15:58:29;-0.50;99.90
11304;DHT22;5707;49.588;12.148;2023-01-20T16:00:57;-0.60;99.90
11304;DHT22;5707;49.588;12.148;2023-01-20T16:03:24;-0.70;99.90
11304;DHT22;5707;49.588;12.148;2023-01-20T16:05:51;-0.80;99.90
11304;DHT22;5707;49.588;12.148;2023-01-20T16:08:19;-0.90;99.90
11304;DHT22;5707;49.588;12.148;2023-01-20T16:10:45;-1.00;99.90
11304;DHT22;5707;49.588;12.148;2023-01-20T16:13:11;-1.10;99.90
11304;DHT22;5707;49.588;12.148;2023-01-20T16:15:37;-1.20;99.90
11304;DHT22;5707;49.588;12.148;2023-01-20T16:18:04;-1.30;99.90
11304;DHT22;5707;49.588;12.148;2023-01-20T16:20:30;-1.40;99.90
11304;DHT22;5707;49.588;12.148;2023-01-20T16:22:56;-1.60;99.90
11304;DHT22;5707;49.588;12.148;2023-01-20T16:25:21;-1.60;99.90
11304;DHT22;5707;49.588;12.148;2023-01-20T16:27:48;-1.70;99.90
11304;DHT22;5707;49.588;12.148;2023-01-20T16:30:15;-1.90;99.90
11304;DHT22;5707;49.588;12.148;2023-01-20T16:32:42;-2.00;99.90
11304;DHT22;5707;49.588;12.148;2023-01-20T16:35:11;-2.10;99.90
11304;DHT22;5707;49.588;12.148;2023-01-20T16:37:37;-2.20;99.90
11304;DHT22;5707;49.588;12.148;2023-01-20T16:40:03;-2.20;99.90
11304;DHT22;5707;49.588;12.148;2023-01-20T16:42:28;-2.30;99.90
11304;DHT22;5707;49.588;12.148;2023-01-20T16:44:54;-2.40;99.90
11304;DHT22;5707;49.588;12.148;2023-01-20T16:47:20;-2.50;99.90
11304;DHT22;5707;49.588;12.148;2023-01-20T16:49:45;-2.50;99.90
11304;DHT22;5707;49.588;12.148;2023-01-20T16:52:11;-2.50;99.90
11304;DHT22;5707;49.588;12.148;2023-01-20T16:54:38;-2.60;99.90
11304;DHT22;5707;49.588;12.148;2023-01-20T16:57:03;-2.70;99.90
11304;DHT22;5707;49.588;12.148;2023-01-20T16:59:29;-2.80;99.90
11304;DHT22;5707;49.588;12.148;2023-01-20T17:01:54;-3.00;99.90
11304;DHT22;5707;49.588;12.148;2023-01-20T17:04:20;-3.10;99.90
11304;DHT22;5707;49.588;12.148;2023-01-20T17:06:46;-3.10;99.90
11304;DHT22;5707;49.588;12.148;2023-01-20T17:09:11;-3.20;99.90
11304;DHT22;5707;49.588;12.148;2023-01-20T17:11:38;-3.10;99.90
11304;DHT22;5707;49.588;12.148;2023-01-20T17:14:07;-3.10;99.90
11304;DHT22;5707;49.588;12.148;2023-01-20T17:16:33;-3.10;99.90
11304;DHT22;5707;49.588;12.148;2023-01-20T17:19:00;-3.10;99.90
11304;DHT22;5707;49.588;12.148;2023-01-20T17:21:28;-3.30;99.90
11304;DHT22;5707;49.588;12.148;2023-01-20T17:24:03;-3.50;99.90
11304;DHT22;5707;49.588;12.148;2023-01-20T17:26:30;-3.80;99.90
11304;DHT22;5707;49.588;12.148;2023-01-20T17:28:57;-3.90;99.90
11304;DHT22;5707;49.588;12.148;2023-01-20T17:31:23;-4.00;99.90
11304;DHT22;5707;49.588;12.148;2023-01-20T17:33:50;-4.10;99.90
11304;DHT22;5707;49.588;12.148;2023-01-20T17:36:16;-4.10;99.90
11304;DHT22;5707;49.588;12.148;2023-01-20T17:38:42;-4.10;99.90
11304;DHT22;5707;49.588;12.148;2023-01-20T17:41:09;-4.20;99.90
11304;DHT22;5707;49.588;12.148;2023-01-20T17:43:42;-4.20;99.90